Delphis Riga — VRQN8 — position and weather

sailwx.info

Track history (hours):
 
Tides and Currents Weather Stations Pressure Air Temp Water Temp Dewpoint Dewpoint Depression Visibility Wind Speed Wind Dir Waves Ship Positions

Delphis Riga

Last reported at 2018-Aug-18 07:53 UTC. Time now 2018-Aug-18 14:14 UTC.
Position N 43°14' E 014°59'.

Length 178 m; draft 7.9 m.

Type: Ship (hazmat cat D). MMSI: 477234800.

Date/timePositionNaut miles runAvg speedWind from/ knotsBaromVisibWave heightAir tempDewpointWater temp
2018-Aug-18 07:53N 43°14' E 014°59'510.6
2018-Aug-18 07:27N 43°10' E 015°02'510.9
2018-Aug-18 07:00N 43°06' E 015°05'610.7
2018-Aug-18 06:29N 43°01' E 015°10'510.6
2018-Aug-18 06:00N 42°57' E 015°14'  
2018-Aug-15 22:44N 36°44' E 023°31'311.8
2018-Aug-15 22:30N 36°46' E 023°32'611.7
2018-Aug-15 22:01N 36°51' E 023°36'611.4
2018-Aug-15 21:31N 36°56' E 023°39'811.5
2018-Aug-15 20:48N 37°03' E 023°44'311.4
2018-Aug-15 20:31N 37°06' E 023°46'611.4
2018-Aug-15 20:01N 37°11' E 023°50'811.7
2018-Aug-15 19:20N 37°18' E 023°55'  
2018-Aug-13 08:02N 37°49' E 024°27'014.3
2018-Aug-13 08:00N 37°48' E 024°27'715.0
2018-Aug-13 07:31N 37°44' E 024°19'1014.3
2018-Aug-13 06:47N 37°37' E 024°09'513.9
2018-Aug-13 06:26N 37°35' E 024°04'614.7
2018-Aug-13 06:00N 37°35' E 023°56'715.2
2018-Aug-13 05:30N 37°37' E 023°47'713.8
2018-Aug-13 05:00N 37°42' E 023°41'714.7
2018-Aug-13 04:30N 37°49' E 023°37'713.7
2018-Aug-13 04:00N 37°56' E 023°37'2 4.0
2018-Aug-13 03:30N 37°57' E 023°35'0 0.0
2018-Aug-13 03:00N 37°57' E 023°35'0 0.0
2018-Aug-13 02:30N 37°57' E 023°35'0 0.0
2018-Aug-13 02:00N 37°57' E 023°35'0 0.0
2018-Aug-13 01:30N 37°57' E 023°35'0 0.0
2018-Aug-13 01:00N 37°57' E 023°35'0 0.0
2018-Aug-13 00:30N 37°57' E 023°35'0 0.0
2018-Aug-13 00:00N 37°57' E 023°35'0 0.0
2018-Aug-12 23:30N 37°57' E 023°35'0 0.0
2018-Aug-12 23:00N 37°57' E 023°35'0 0.1
2018-Aug-12 22:30N 37°57' E 023°35'0 0.1
2018-Aug-12 22:00N 37°57' E 023°35'0 0.0
2018-Aug-12 21:30N 37°57' E 023°35'0 0.0
2018-Aug-12 21:00N 37°57' E 023°35'0 0.0
2018-Aug-12 20:29N 37°57' E 023°35'0 0.0
2018-Aug-12 19:59N 37°57' E 023°35'0 0.0
2018-Aug-12 19:29N 37°57' E 023°35'0 0.0
2018-Aug-12 18:59N 37°57' E 023°35'0 0.0
2018-Aug-12 18:29N 37°57' E 023°35'0 0.0
2018-Aug-12 17:59N 37°57' E 023°35'0 0.0
2018-Aug-12 17:29N 37°57' E 023°35'0 0.0
2018-Aug-12 16:59N 37°57' E 023°35'0 0.0
2018-Aug-12 16:29N 37°57' E 023°35'0 0.0
2018-Aug-12 15:59N 37°57' E 023°35'0 0.0
2018-Aug-12 15:29N 37°57' E 023°35'0 0.0
2018-Aug-12 14:59N 37°57' E 023°35'0 0.0
2018-Aug-12 14:29N 37°57' E 023°35'0 0.0
2018-Aug-12 13:59N 37°57' E 023°35'0 0.0
2018-Aug-12 13:29N 37°57' E 023°35'0 0.0
2018-Aug-12 12:59N 37°57' E 023°35'0 0.0
2018-Aug-12 12:29N 37°57' E 023°35'0 0.0
2018-Aug-12 11:59N 37°57' E 023°35'0 0.0
2018-Aug-12 11:29N 37°57' E 023°35'0 0.0
2018-Aug-12 10:59N 37°57' E 023°35'0 0.0
2018-Aug-12 10:29N 37°57' E 023°35'0 0.0
2018-Aug-12 09:59N 37°57' E 023°35'0 0.0
2018-Aug-12 09:29N 37°57' E 023°35'0 0.0
2018-Aug-12 08:59N 37°57' E 023°35'0 0.0
2018-Aug-12 08:29N 37°57' E 023°35'0 0.0
2018-Aug-12 07:59N 37°57' E 023°35'0 0.0
2018-Aug-12 07:29N 37°57' E 023°35'0 0.0
2018-Aug-12 06:59N 37°57' E 023°35'0 0.0
2018-Aug-12 06:29N 37°57' E 023°35'0 0.0
2018-Aug-12 05:59N 37°57' E 023°35'0 0.0
2018-Aug-12 05:29N 37°57' E 023°35'0 0.3
2018-Aug-12 05:00N 37°57' E 023°35'2 4.5
2018-Aug-12 04:30N 37°55' E 023°35'1 2.5
2018-Aug-12 04:00N 37°54' E 023°35'1 1.4
2018-Aug-12 03:30N 37°53' E 023°36'3 5.5
2018-Aug-12 03:00N 37°51' E 023°38'612.3
2018-Aug-12 02:30N 37°46' E 023°42'612.9
2018-Aug-12 02:00N 37°40' E 023°45'510.8
2018-Aug-12 01:30N 37°35' E 023°43'5 9.3
2018-Aug-12 01:00N 37°31' E 023°39'0 0.7
2018-Aug-12 00:31N 37°31' E 023°39'1 1.0
2018-Aug-12 00:00N 37°32' E 023°40'1 1.0
2018-Aug-11 23:30N 37°32' E 023°40'1 1.0
2018-Aug-11 23:00N 37°33' E 023°40'1 1.1
2018-Aug-11 22:30N 37°33' E 023°40'1 1.0
2018-Aug-11 22:00N 37°34' E 023°40'1 1.0
2018-Aug-11 21:30N 37°34' E 023°40'1 1.1
2018-Aug-11 21:00N 37°34' E 023°40'2 3.9
2018-Aug-11 20:30N 37°33' E 023°38'0 0.9
2018-Aug-11 20:00N 37°33' E 023°38'1 1.1
2018-Aug-11 19:30N 37°34' E 023°38'1 1.1
2018-Aug-11 19:00N 37°34' E 023°38'1 1.0
2018-Aug-11 18:30N 37°35' E 023°39'0 0.9
2018-Aug-11 18:00N 37°35' E 023°39'0 0.9
2018-Aug-11 17:30N 37°35' E 023°40'1 1.8
2018-Aug-11 17:00N 37°35' E 023°39'4 7.7
2018-Aug-11 16:30N 37°32' E 023°35'0 0.8
2018-Aug-11 16:00N 37°32' E 023°36'1 1.3
2018-Aug-11 15:30N 37°33' E 023°36'1 1.3
2018-Aug-11 15:00N 37°33' E 023°37'1 1.2
2018-Aug-11 14:30N 37°33' E 023°37'1 1.1
2018-Aug-11 14:00N 37°34' E 023°38'1 1.1
2018-Aug-11 13:30N 37°34' E 023°38'0 0.8
2018-Aug-11 13:00N 37°35' E 023°38'0 0.8
2018-Aug-11 12:30N 37°35' E 023°38'1 3.0
2018-Aug-11 12:00N 37°34' E 023°38'1 2.6
2018-Aug-11 11:30N 37°32' E 023°38'1 1.2
2018-Aug-11 11:00N 37°33' E 023°38'1 1.2
2018-Aug-11 10:30N 37°33' E 023°38'0 0.7
2018-Aug-11 10:00N 37°34' E 023°39'4 7.0
2018-Aug-11 09:30N 37°31' E 023°42'2 4.5
2018-Aug-11 09:00N 37°29' E 023°41'2 3.4
2018-Aug-11 08:30N 37°29' E 023°43'713.7
2018-Aug-11 08:00N 37°22' E 023°41'714.2
2018-Aug-11 07:30N 37°15' E 023°40'54711.8
2018-Aug-09 09:18N 43°21' E 014°46'2014.5
2018-Aug-09 07:56N 43°29' E 014°21'614.4
2018-Aug-09 07:31N 43°32' E 014°14'1514.4
2018-Aug-09 06:29N 43°36' E 013°54'714.2
2018-Aug-09 05:58N 43°39' E 013°45'714.1
2018-Aug-09 05:30N 43°39' E 013°36'2 0.2
2018-Aug-08 16:45N 43°41' E 013°34'1310.9
2018-Aug-08 15:35N 43°47' E 013°49'116.4
2018-Aug-08 15:31N 43°49' E 013°50'816.0
2018-Aug-08 15:01N 43°56' E 013°45'816.7
2018-Aug-08 14:30N 44°01' E 013°35'816.7
2018-Aug-08 14:01N 44°05' E 013°26'816.5
2018-Aug-08 13:31N 44°10' E 013°16'815.6
2018-Aug-08 13:01N 44°16' E 013°10'816.6
2018-Aug-08 12:30N 44°24' E 013°07'816.8
2018-Aug-08 12:00N 44°32' E 013°03'816.7
2018-Aug-08 11:30N 44°40' E 012°59'816.8
2018-Aug-08 11:00N 44°48' E 012°55'916.8
2018-Aug-08 10:27N 44°57' E 012°50'816.9
2018-Aug-08 10:00N 45°03' E 012°45'816.7
2018-Aug-08 09:31N 45°09' E 012°37'714.6
2018-Aug-08 09:01N 45°15' E 012°30'714.2
2018-Aug-08 08:31N 45°19' E 012°23'5 9.6
2018-Aug-08 08:00N 45°21' E 012°16'  
Track history (hours):
 
Tides and Currents Weather Stations Pressure Air Temp Water Temp Dewpoint Dewpoint Depression Visibility Wind Speed Wind Dir Waves Ship Positions

Delphis Riga

Last reported at 2018-Aug-18 07:53 UTC. Time now 2018-Aug-18 14:14 UTC.
Position N 43°14' E 014°59'.

Length 178 m; draft 7.9 m.

Type: Ship (hazmat cat D). MMSI: 477234800.

Date/timePositionNaut miles runAvg speedWind from/ knotsBaromVisibWave heightAir tempDewpointWater temp
2018-Aug-18 07:53N 43°14' E 014°59'510.6
2018-Aug-18 07:27N 43°10' E 015°02'510.9
2018-Aug-18 07:00N 43°06' E 015°05'610.7
2018-Aug-18 06:29N 43°01' E 015°10'510.6
2018-Aug-18 06:00N 42°57' E 015°14'  
2018-Aug-15 22:44N 36°44' E 023°31'311.8
2018-Aug-15 22:30N 36°46' E 023°32'611.7
2018-Aug-15 22:01N 36°51' E 023°36'611.4
2018-Aug-15 21:31N 36°56' E 023°39'811.5
2018-Aug-15 20:48N 37°03' E 023°44'311.4
2018-Aug-15 20:31N 37°06' E 023°46'611.4
2018-Aug-15 20:01N 37°11' E 023°50'811.7
2018-Aug-15 19:20N 37°18' E 023°55'  
2018-Aug-13 08:02N 37°49' E 024°27'014.3
2018-Aug-13 08:00N 37°48' E 024°27'715.0
2018-Aug-13 07:31N 37°44' E 024°19'1014.3
2018-Aug-13 06:47N 37°37' E 024°09'513.9
2018-Aug-13 06:26N 37°35' E 024°04'614.7
2018-Aug-13 06:00N 37°35' E 023°56'715.2
2018-Aug-13 05:30N 37°37' E 023°47'713.8
2018-Aug-13 05:00N 37°42' E 023°41'714.7
2018-Aug-13 04:30N 37°49' E 023°37'713.7
2018-Aug-13 04:00N 37°56' E 023°37'2 4.0
2018-Aug-13 03:30N 37°57' E 023°35'0 0.0
2018-Aug-13 03:00N 37°57' E 023°35'0 0.0
2018-Aug-13 02:30N 37°57' E 023°35'0 0.0
2018-Aug-13 02:00N 37°57' E 023°35'0 0.0
2018-Aug-13 01:30N 37°57' E 023°35'0 0.0
2018-Aug-13 01:00N 37°57' E 023°35'0 0.0
2018-Aug-13 00:30N 37°57' E 023°35'0 0.0
2018-Aug-13 00:00N 37°57' E 023°35'0 0.0
2018-Aug-12 23:30N 37°57' E 023°35'0 0.0
2018-Aug-12 23:00N 37°57' E 023°35'0 0.1
2018-Aug-12 22:30N 37°57' E 023°35'0 0.1
2018-Aug-12 22:00N 37°57' E 023°35'0 0.0
2018-Aug-12 21:30N 37°57' E 023°35'0 0.0
2018-Aug-12 21:00N 37°57' E 023°35'0 0.0
2018-Aug-12 20:29N 37°57' E 023°35'0 0.0
2018-Aug-12 19:59N 37°57' E 023°35'0 0.0
2018-Aug-12 19:29N 37°57' E 023°35'0 0.0
2018-Aug-12 18:59N 37°57' E 023°35'0 0.0
2018-Aug-12 18:29N 37°57' E 023°35'0 0.0
2018-Aug-12 17:59N 37°57' E 023°35'0 0.0
2018-Aug-12 17:29N 37°57' E 023°35'0 0.0
2018-Aug-12 16:59N 37°57' E 023°35'0 0.0
2018-Aug-12 16:29N 37°57' E 023°35'0 0.0
2018-Aug-12 15:59N 37°57' E 023°35'0 0.0
2018-Aug-12 15:29N 37°57' E 023°35'0 0.0
2018-Aug-12 14:59N 37°57' E 023°35'0 0.0
2018-Aug-12 14:29N 37°57' E 023°35'0 0.0
2018-Aug-12 13:59N 37°57' E 023°35'0 0.0
2018-Aug-12 13:29N 37°57' E 023°35'0 0.0
2018-Aug-12 12:59N 37°57' E 023°35'0 0.0
2018-Aug-12 12:29N 37°57' E 023°35'0 0.0
2018-Aug-12 11:59N 37°57' E 023°35'0 0.0
2018-Aug-12 11:29N 37°57' E 023°35'0 0.0
2018-Aug-12 10:59N 37°57' E 023°35'0 0.0
2018-Aug-12 10:29N 37°57' E 023°35'0 0.0
2018-Aug-12 09:59N 37°57' E 023°35'0 0.0
2018-Aug-12 09:29N 37°57' E 023°35'0 0.0
2018-Aug-12 08:59N 37°57' E 023°35'0 0.0
2018-Aug-12 08:29N 37°57' E 023°35'0 0.0
2018-Aug-12 07:59N 37°57' E 023°35'0 0.0
2018-Aug-12 07:29N 37°57' E 023°35'0 0.0
2018-Aug-12 06:59N 37°57' E 023°35'0 0.0
2018-Aug-12 06:29N 37°57' E 023°35'0 0.0
2018-Aug-12 05:59N 37°57' E 023°35'0 0.0
2018-Aug-12 05:29N 37°57' E 023°35'0 0.3
2018-Aug-12 05:00N 37°57' E 023°35'2 4.5
2018-Aug-12 04:30N 37°55' E 023°35'1 2.5
2018-Aug-12 04:00N 37°54' E 023°35'1 1.4
2018-Aug-12 03:30N 37°53' E 023°36'3 5.5
2018-Aug-12 03:00N 37°51' E 023°38'612.3
2018-Aug-12 02:30N 37°46' E 023°42'612.9
2018-Aug-12 02:00N 37°40' E 023°45'510.8
2018-Aug-12 01:30N 37°35' E 023°43'5 9.3
2018-Aug-12 01:00N 37°31' E 023°39'0 0.7
2018-Aug-12 00:31N 37°31' E 023°39'1 1.0
2018-Aug-12 00:00N 37°32' E 023°40'1 1.0
2018-Aug-11 23:30N 37°32' E 023°40'1 1.0
2018-Aug-11 23:00N 37°33' E 023°40'1 1.1
2018-Aug-11 22:30N 37°33' E 023°40'1 1.0
2018-Aug-11 22:00N 37°34' E 023°40'1 1.0
2018-Aug-11 21:30N 37°34' E 023°40'1 1.1
2018-Aug-11 21:00N 37°34' E 023°40'2 3.9
2018-Aug-11 20:30N 37°33' E 023°38'0 0.9
2018-Aug-11 20:00N 37°33' E 023°38'1 1.1
2018-Aug-11 19:30N 37°34' E 023°38'1 1.1
2018-Aug-11 19:00N 37°34' E 023°38'1 1.0
2018-Aug-11 18:30N 37°35' E 023°39'0 0.9
2018-Aug-11 18:00N 37°35' E 023°39'0 0.9
2018-Aug-11 17:30N 37°35' E 023°40'1 1.8
2018-Aug-11 17:00N 37°35' E 023°39'4 7.7
2018-Aug-11 16:30N 37°32' E 023°35'0 0.8
2018-Aug-11 16:00N 37°32' E 023°36'1 1.3
2018-Aug-11 15:30N 37°33' E 023°36'1 1.3
2018-Aug-11 15:00N 37°33' E 023°37'1 1.2
2018-Aug-11 14:30N 37°33' E 023°37'1 1.1
2018-Aug-11 14:00N 37°34' E 023°38'1 1.1
2018-Aug-11 13:30N 37°34' E 023°38'0 0.8
2018-Aug-11 13:00N 37°35' E 023°38'0 0.8
2018-Aug-11 12:30N 37°35' E 023°38'1 3.0
2018-Aug-11 12:00N 37°34' E 023°38'1 2.6
2018-Aug-11 11:30N 37°32' E 023°38'1 1.2
2018-Aug-11 11:00N 37°33' E 023°38'1 1.2
2018-Aug-11 10:30N 37°33' E 023°38'0 0.7
2018-Aug-11 10:00N 37°34' E 023°39'4 7.0
2018-Aug-11 09:30N 37°31' E 023°42'2 4.5
2018-Aug-11 09:00N 37°29' E 023°41'2 3.4
2018-Aug-11 08:30N 37°29' E 023°43'713.7
2018-Aug-11 08:00N 37°22' E 023°41'714.2
2018-Aug-11 07:30N 37°15' E 023°40'54711.8
2018-Aug-09 09:18N 43°21' E 014°46'2014.5
2018-Aug-09 07:56N 43°29' E 014°21'614.4
2018-Aug-09 07:31N 43°32' E 014°14'1514.4
2018-Aug-09 06:29N 43°36' E 013°54'714.2
2018-Aug-09 05:58N 43°39' E 013°45'714.1
2018-Aug-09 05:30N 43°39' E 013°36'2 0.2
2018-Aug-08 16:45N 43°41' E 013°34'1310.9
2018-Aug-08 15:35N 43°47' E 013°49'116.4
2018-Aug-08 15:31N 43°49' E 013°50'816.0
2018-Aug-08 15:01N 43°56' E 013°45'816.7
2018-Aug-08 14:30N 44°01' E 013°35'816.7
2018-Aug-08 14:01N 44°05' E 013°26'816.5
2018-Aug-08 13:31N 44°10' E 013°16'815.6
2018-Aug-08 13:01N 44°16' E 013°10'816.6
2018-Aug-08 12:30N 44°24' E 013°07'816.8
2018-Aug-08 12:00N 44°32' E 013°03'816.7
2018-Aug-08 11:30N 44°40' E 012°59'816.8
2018-Aug-08 11:00N 44°48' E 012°55'916.8
2018-Aug-08 10:27N 44°57' E 012°50'816.9
2018-Aug-08 10:00N 45°03' E 012°45'816.7
2018-Aug-08 09:31N 45°09' E 012°37'714.6
2018-Aug-08 09:01N 45°15' E 012°30'714.2
2018-Aug-08 08:31N 45°19' E 012°23'5 9.6
2018-Aug-08 08:00N 45°21' E 012°16'  

Dump ship's entire track history